sensor_id;sensor_type;location;lat;lon;timestamp;pressure;altitude;pressure_sealevel;temperature;humidity
61761;BME280;47664;51.660;-0.100;2023-05-02T00:00:51;101527.98;;;11.72;55.14
61761;BME280;47664;51.660;-0.100;2023-05-02T00:03:18;101529.57;;;12.54;54.91
61761;BME280;47664;51.660;-0.100;2023-05-02T00:05:45;101536.44;;;11.99;54.46
61761;BME280;47664;51.660;-0.100;2023-05-02T00:08:13;101544.17;;;12.55;54.43
61761;BME280;47664;51.660;-0.100;2023-05-02T00:10:40;101548.03;;;12.07;54.34
61761;BME280;47664;51.660;-0.100;2023-05-02T00:13:07;101548.56;;;12.74;53.97
61761;BME280;47664;51.660;-0.100;2023-05-02T00:15:36;101548.27;;;13.10;53.90
61761;BME280;47664;51.660;-0.100;2023-05-02T00:18:02;101551.68;;;12.49;54.62
61761;BME280;47664;51.660;-0.100;2023-05-02T00:20:29;101552.87;;;12.58;55.03
61761;BME280;47664;51.660;-0.100;2023-05-02T00:22:56;101555.71;;;11.94;54.91
61761;BME280;47664;51.660;-0.100;2023-05-02T00:25:23;101554.42;;;12.23;55.78
61761;BME280;47664;51.660;-0.100;2023-05-02T00:27:50;101554.87;;;11.75;55.33
61761;BME280;47664;51.660;-0.100;2023-05-02T00:30:17;101557.61;;;12.60;55.01
61761;BME280;47664;51.660;-0.100;2023-05-02T00:32:45;101552.36;;;11.44;56.09
61761;BME280;47664;51.660;-0.100;2023-05-02T00:35:12;101555.51;;;11.88;56.15
61761;BME280;47664;51.660;-0.100;2023-05-02T00:37:39;101560.00;;;12.25;54.88
61761;BME280;47664;51.660;-0.100;2023-05-02T00:40:07;101561.63;;;12.41;55.08
61761;BME280;47664;51.660;-0.100;2023-05-02T00:42:35;101562.73;;;12.72;55.02
61761;BME280;47664;51.660;-0.100;2023-05-02T00:45:03;101562.54;;;12.48;55.11
61761;BME280;47664;51.660;-0.100;2023-05-02T00:47:30;101565.08;;;12.35;55.11
61761;BME280;47664;51.660;-0.100;2023-05-02T00:49:57;101559.82;;;12.00;55.17
61761;BME280;47664;51.660;-0.100;2023-05-02T00:52:24;101559.90;;;12.44;54.85
61761;BME280;47664;51.660;-0.100;2023-05-02T00:54:51;101557.05;;;11.94;54.79
61761;BME280;47664;51.660;-0.100;2023-05-02T00:57:19;101558.24;;;12.41;54.80
61761;BME280;47664;51.660;-0.100;2023-05-02T00:59:47;101555.38;;;11.59;55.29
61761;BME280;47664;51.660;-0.100;2023-05-02T01:02:26;101560.15;;;12.54;54.89
61761;BME280;47664;51.660;-0.100;2023-05-02T01:05:01;101559.72;;;11.21;55.90
61761;BME280;47664;51.660;-0.100;2023-05-02T01:07:53;101567.43;;;11.91;56.38
61761;BME280;47664;51.660;-0.100;2023-05-02T01:10:33;101572.65;;;12.25;55.88
61761;BME280;47664;51.660;-0.100;2023-05-02T01:13:08;101571.30;;;11.84;55.73
61761;BME280;47664;51.660;-0.100;2023-05-02T01:15:38;101572.46;;;12.30;55.65
61761;BME280;47664;51.660;-0.100;2023-05-02T01:18:08;101577.98;;;12.04;55.58
61761;BME280;47664;51.660;-0.100;2023-05-02T01:20:39;101580.03;;;12.06;55.84
61761;BME280;47664;51.660;-0.100;2023-05-02T01:23:15;101580.76;;;12.10;55.53
61761;BME280;47664;51.660;-0.100;2023-05-02T01:25:54;101584.01;;;11.39;55.48
61761;BME280;47664;51.660;-0.100;2023-05-02T01:28:35;101590.02;;;11.88;55.79
61761;BME280;47664;51.660;-0.100;2023-05-02T01:31:05;101593.50;;;11.62;56.13
61761;BME280;47664;51.660;-0.100;2023-05-02T01:33:34;101597.76;;;12.12;55.84
61761;BME280;47664;51.660;-0.100;2023-05-02T01:36:03;101594.80;;;11.45;56.64
61761;BME280;47664;51.660;-0.100;2023-05-02T01:38:33;101597.95;;;11.91;56.16
61761;BME280;47664;51.660;-0.100;2023-05-02T01:41:01;101598.81;;;11.39;56.47
61761;BME280;47664;51.660;-0.100;2023-05-02T01:43:31;101596.83;;;11.70;56.74
61761;BME280;47664;51.660;-0.100;2023-05-02T01:46:01;101598.29;;;11.40;56.96
61761;BME280;47664;51.660;-0.100;2023-05-02T01:48:30;101598.92;;;11.27;57.42
61761;BME280;47664;51.660;-0.100;2023-05-02T01:50:59;101598.70;;;11.29;57.27
61761;BME280;47664;51.660;-0.100;2023-05-02T01:53:28;101606.25;;;11.09;57.65
61761;BME280;47664;51.660;-0.100;2023-05-02T01:55:58;101608.17;;;11.29;57.95
61761;BME280;47664;51.660;-0.100;2023-05-02T01:58:26;101606.93;;;11.05;58.25
61761;BME280;47664;51.660;-0.100;2023-05-02T02:00:57;101611.38;;;10.73;58.18
61761;BME280;47664;51.660;-0.100;2023-05-02T02:03:26;101616.28;;;11.37;57.72
61761;BME280;47664;51.660;-0.100;2023-05-02T02:05:55;101618.83;;;10.99;58.03
61761;BME280;47664;51.660;-0.100;2023-05-02T02:08:23;101617.44;;;11.05;58.36
61761;BME280;47664;51.660;-0.100;2023-05-02T02:10:56;101620.22;;;10.45;59.12
61761;BME280;47664;51.660;-0.100;2023-05-02T02:13:28;101621.31;;;10.81;59.59
61761;BME280;47664;51.660;-0.100;2023-05-02T02:16:00;101621.76;;;10.73;59.20
61761;BME280;47664;51.660;-0.100;2023-05-02T02:18:34;101624.80;;;10.92;58.77
61761;BME280;47664;51.660;-0.100;2023-05-02T02:21:05;101623.19;;;11.09;58.15
61761;BME280;47664;51.660;-0.100;2023-05-02T02:23:34;101625.40;;;11.61;57.52
61761;BME280;47664;51.660;-0.100;2023-05-02T02:26:03;101626.14;;;11.12;58.21
61761;BME280;47664;51.660;-0.100;2023-05-02T02:28:33;101625.91;;;11.23;57.94
61761;BME280;47664;51.660;-0.100;2023-05-02T02:31:01;101628.39;;;11.37;57.90
61761;BME280;47664;51.660;-0.100;2023-05-02T02:33:29;101635.66;;;11.11;58.50
61761;BME280;47664;51.660;-0.100;2023-05-02T02:36:04;101642.94;;;10.87;58.39
61761;BME280;47664;51.660;-0.100;2023-05-02T02:38:41;101647.31;;;11.21;58.92
61761;BME280;47664;51.660;-0.100;2023-05-02T02:41:15;101652.88;;;10.86;59.10
61761;BME280;47664;51.660;-0.100;2023-05-02T02:43:52;101659.57;;;10.76;58.36
61761;BME280;47664;51.660;-0.100;2023-05-02T02:46:29;101665.69;;;11.32;58.29
61761;BME280;47664;51.660;-0.100;2023-05-02T02:49:13;101667.65;;;11.14;58.50
61761;BME280;47664;51.660;-0.100;2023-05-02T02:51:49;101667.67;;;10.94;58.49
61761;BME280;47664;51.660;-0.100;2023-05-02T02:54:27;101666.79;;;11.32;59.16
61761;BME280;47664;51.660;-0.100;2023-05-02T02:57:00;101665.98;;;10.69;59.21
61761;BME280;47664;51.660;-0.100;2023-05-02T02:59:32;101671.63;;;11.27;59.43
61761;BME280;47664;51.660;-0.100;2023-05-02T03:02:05;101668.23;;;10.75;59.57
61761;BME280;47664;51.660;-0.100;2023-05-02T03:04:35;101673.71;;;11.15;59.65
61761;BME280;47664;51.660;-0.100;2023-05-02T03:07:04;101678.97;;;10.83;59.43
61761;BME280;47664;51.660;-0.100;2023-05-02T03:09:40;101681.29;;;11.44;58.77
61761;BME280;47664;51.660;-0.100;2023-05-02T03:12:07;101686.19;;;10.99;59.14
61761;BME280;47664;51.660;-0.100;2023-05-02T03:14:34;101688.79;;;11.05;59.80
61761;BME280;47664;51.660;-0.100;2023-05-02T03:17:02;101692.68;;;11.24;59.35
61761;BME280;47664;51.660;-0.100;2023-05-02T03:19:29;101695.82;;;11.25;58.77
61761;BME280;47664;51.660;-0.100;2023-05-02T03:21:56;101695.12;;;11.25;58.27
61761;BME280;47664;51.660;-0.100;2023-05-02T03:24:23;101700.84;;;11.47;58.19
61761;BME280;47664;51.660;-0.100;2023-05-02T03:26:54;101703.83;;;10.92;57.74
61761;BME280;47664;51.660;-0.100;2023-05-02T03:29:21;101703.32;;;11.24;58.51
61761;BME280;47664;51.660;-0.100;2023-05-02T03:31:48;101704.87;;;10.81;57.71
61761;BME280;47664;51.660;-0.100;2023-05-02T03:34:16;101710.05;;;11.35;58.36
61761;BME280;47664;51.660;-0.100;2023-05-02T03:36:43;101710.58;;;11.09;58.12
61761;BME280;47664;51.660;-0.100;2023-05-02T03:39:10;101710.38;;;11.46;58.28
61761;BME280;47664;51.660;-0.100;2023-05-02T03:41:37;101713.05;;;11.12;58.99
61761;BME280;47664;51.660;-0.100;2023-05-02T03:44:05;101714.05;;;11.59;58.27
61761;BME280;47664;51.660;-0.100;2023-05-02T03:46:32;101718.64;;;11.49;58.41
61761;BME280;47664;51.660;-0.100;2023-05-02T03:48:58;101723.13;;;11.51;58.23
61761;BME280;47664;51.660;-0.100;2023-05-02T03:51:25;101726.56;;;11.90;57.54
61761;BME280;47664;51.660;-0.100;2023-05-02T03:53:52;101725.14;;;11.19;57.40
61761;BME280;47664;51.660;-0.100;2023-05-02T03:56:19;101725.92;;;11.77;57.48
61761;BME280;47664;51.660;-0.100;2023-05-02T03:58:48;101723.62;;;11.05;57.50
61761;BME280;47664;51.660;-0.100;2023-05-02T04:01:15;101728.06;;;11.60;58.53
61761;BME280;47664;51.660;-0.100;2023-05-02T04:03:43;101728.97;;;10.60;59.72
61761;BME280;47664;51.660;-0.100;2023-05-02T04:06:11;101735.74;;;10.55;60.68
61761;BME280;47664;51.660;-0.100;2023-05-02T04:08:38;101737.44;;;10.37;61.13
61761;BME280;47664;51.660;-0.100;2023-05-02T04:11:05;101743.52;;;10.64;60.58
61761;BME280;47664;51.660;-0.100;2023-05-02T04:13:32;101747.60;;;10.72;60.13
61761;BME280;47664;51.660;-0.100;2023-05-02T04:15:59;101749.27;;;10.83;59.36
61761;BME280;47664;51.660;-0.100;2023-05-02T04:18:26;101750.92;;;10.83;59.57
61761;BME280;47664;51.660;-0.100;2023-05-02T04:20:53;101757.20;;;9.90;60.05
61761;BME280;47664;51.660;-0.100;2023-05-02T04:23:20;101759.00;;;10.36;61.08
61761;BME280;47664;51.660;-0.100;2023-05-02T04:25:51;101763.00;;;10.10;61.05
61761;BME280;47664;51.660;-0.100;2023-05-02T04:28:19;101764.22;;;10.22;61.63
61761;BME280;47664;51.660;-0.100;2023-05-02T04:30:47;101764.87;;;9.68;62.05
61761;BME280;47664;51.660;-0.100;2023-05-02T04:33:14;101764.91;;;10.73;61.10
61761;BME280;47664;51.660;-0.100;2023-05-02T04:35:41;101764.69;;;10.45;60.44
61761;BME280;47664;51.660;-0.100;2023-05-02T04:38:09;101765.26;;;11.08;60.10
61761;BME280;47664;51.660;-0.100;2023-05-02T04:40:37;101768.27;;;11.09;59.23
61761;BME280;47664;51.660;-0.100;2023-05-02T04:43:04;101773.91;;;10.73;59.43
61761;BME280;47664;51.660;-0.100;2023-05-02T04:45:31;101772.72;;;10.75;59.66
61761;BME280;47664;51.660;-0.100;2023-05-02T04:47:59;101774.93;;;10.95;58.86
61761;BME280;47664;51.660;-0.100;2023-05-02T04:50:26;101779.38;;;10.96;59.29
61761;BME280;47664;51.660;-0.100;2023-05-02T04:52:54;101784.69;;;10.58;59.32
61761;BME280;47664;51.660;-0.100;2023-05-02T04:55:22;101793.51;;;10.91;59.68
61761;BME280;47664;51.660;-0.100;2023-05-02T04:57:50;101798.69;;;10.20;59.37
61761;BME280;47664;51.660;-0.100;2023-05-02T05:00:17;101805.03;;;11.03;58.47
61761;BME280;47664;51.660;-0.100;2023-05-02T05:02:45;101805.87;;;10.51;59.62
61761;BME280;47664;51.660;-0.100;2023-05-02T05:05:12;101808.59;;;10.68;60.12
61761;BME280;47664;51.660;-0.100;2023-05-02T05:07:40;101815.68;;;10.36;60.06
61761;BME280;47664;51.660;-0.100;2023-05-02T05:10:08;101815.12;;;10.42;59.92
61761;BME280;47664;51.660;-0.100;2023-05-02T05:12:35;101815.47;;;11.04;59.30
61761;BME280;47664;51.660;-0.100;2023-05-02T05:15:02;101819.34;;;10.35;59.67
61761;BME280;47664;51.660;-0.100;2023-05-02T05:17:30;101819.16;;;11.39;59.03
61761;BME280;47664;51.660;-0.100;2023-05-02T05:19:58;101818.41;;;10.66;59.09
61761;BME280;47664;51.660;-0.100;2023-05-02T05:22:24;101822.20;;;10.84;58.83
61761;BME280;47664;51.660;-0.100;2023-05-02T05:24:52;101819.29;;;10.37;59.14
61761;BME280;47664;51.660;-0.100;2023-05-02T05:27:20;101827.44;;;10.86;59.80
61761;BME280;47664;51.660;-0.100;2023-05-02T05:29:47;101830.45;;;10.32;59.05
61761;BME280;47664;51.660;-0.100;2023-05-02T05:32:14;101833.56;;;10.69;58.75
61761;BME280;47664;51.660;-0.100;2023-05-02T05:34:42;101835.47;;;10.39;58.99
61761;BME280;47664;51.660;-0.100;2023-05-02T05:37:09;101840.22;;;10.48;59.11
61761;BME280;47664;51.660;-0.100;2023-05-02T05:39:37;101841.13;;;11.01;58.88
61761;BME280;47664;51.660;-0.100;2023-05-02T05:42:03;101843.77;;;10.85;58.43
61761;BME280;47664;51.660;-0.100;2023-05-02T05:44:31;101848.57;;;10.43;60.31
61761;BME280;47664;51.660;-0.100;2023-05-02T05:46:57;101848.44;;;9.64;61.61
61761;BME280;47664;51.660;-0.100;2023-05-02T05:49:24;101846.29;;;9.68;62.58
61761;BME280;47664;51.660;-0.100;2023-05-02T05:51:52;101853.69;;;8.95;63.17
61761;BME280;47664;51.660;-0.100;2023-05-02T05:54:18;101853.83;;;9.84;62.50
61761;BME280;47664;51.660;-0.100;2023-05-02T05:56:47;101863.88;;;9.14;61.67
61761;BME280;47664;51.660;-0.100;2023-05-02T05:59:15;101867.34;;;9.63;62.18
61761;BME280;47664;51.660;-0.100;2023-05-02T06:01:42;101878.51;;;8.57;64.42
61761;BME280;47664;51.660;-0.100;2023-05-02T06:04:09;101879.81;;;8.73;65.28
61761;BME280;47664;51.660;-0.100;2023-05-02T06:06:37;101883.01;;;9.22;64.49
61761;BME280;47664;51.660;-0.100;2023-05-02T06:09:04;101880.29;;;9.46;62.41
61761;BME280;47664;51.660;-0.100;2023-05-02T06:11:31;101882.25;;;10.07;60.91
61761;BME280;47664;51.660;-0.100;2023-05-02T06:13:58;101885.01;;;9.81;59.62
61761;BME280;47664;51.660;-0.100;2023-05-02T06:16:26;101884.76;;;10.28;60.35
61761;BME280;47664;51.660;-0.100;2023-05-02T06:18:53;101884.60;;;9.88;60.52
61761;BME280;47664;51.660;-0.100;2023-05-02T06:21:21;101885.27;;;10.16;60.72
61761;BME280;47664;51.660;-0.100;2023-05-02T06:23:48;101887.17;;;9.17;60.97
61761;BME280;47664;51.660;-0.100;2023-05-02T06:26:16;101895.46;;;10.17;61.20
61761;BME280;47664;51.660;-0.100;2023-05-02T06:28:44;101893.99;;;9.32;61.80
61761;BME280;47664;51.660;-0.100;2023-05-02T06:31:11;101888.84;;;10.00;61.39
61761;BME280;47664;51.660;-0.100;2023-05-02T06:33:39;101890.54;;;9.77;60.96
61761;BME280;47664;51.660;-0.100;2023-05-02T06:36:06;101891.98;;;10.25;59.95
61761;BME280;47664;51.660;-0.100;2023-05-02T06:38:34;101895.18;;;10.56;59.99
61761;BME280;47664;51.660;-0.100;2023-05-02T06:41:01;101895.11;;;10.10;60.23
61761;BME280;47664;51.660;-0.100;2023-05-02T06:43:28;101898.23;;;9.90;61.86
61761;BME280;47664;51.660;-0.100;2023-05-02T06:45:55;101904.68;;;8.92;63.79
61761;BME280;47664;51.660;-0.100;2023-05-02T06:48:23;101897.89;;;9.62;63.30
61761;BME280;47664;51.660;-0.100;2023-05-02T06:50:51;101899.15;;;8.43;63.21
61761;BME280;47664;51.660;-0.100;2023-05-02T06:53:18;101905.05;;;10.07;61.72
61761;BME280;47664;51.660;-0.100;2023-05-02T06:55:46;101910.77;;;9.86;60.22
61761;BME280;47664;51.660;-0.100;2023-05-02T06:58:14;101906.32;;;10.22;60.24
61761;BME280;47664;51.660;-0.100;2023-05-02T07:00:41;101904.83;;;10.33;59.94
61761;BME280;47664;51.660;-0.100;2023-05-02T07:03:09;101909.87;;;10.89;58.94
61761;BME280;47664;51.660;-0.100;2023-05-02T07:05:37;101911.97;;;11.12;58.28
61761;BME280;47664;51.660;-0.100;2023-05-02T07:08:05;101918.58;;;11.68;57.39
61761;BME280;47664;51.660;-0.100;2023-05-02T07:10:32;101918.98;;;11.36;56.94
61761;BME280;47664;51.660;-0.100;2023-05-02T07:12:59;101916.78;;;10.59;60.08
61761;BME280;47664;51.660;-0.100;2023-05-02T07:15:27;101919.94;;;10.28;60.18
61761;BME280;47664;51.660;-0.100;2023-05-02T07:17:54;101921.97;;;9.09;61.04
61761;BME280;47664;51.660;-0.100;2023-05-02T07:20:21;101923.89;;;10.34;60.66
61761;BME280;47664;51.660;-0.100;2023-05-02T07:22:49;101920.80;;;9.85;60.13
61761;BME280;47664;51.660;-0.100;2023-05-02T07:25:17;101919.46;;;10.52;60.18
61761;BME280;47664;51.660;-0.100;2023-05-02T07:27:45;101921.10;;;10.45;59.97
61761;BME280;47664;51.660;-0.100;2023-05-02T07:30:12;101918.41;;;10.25;60.30
61761;BME280;47664;51.660;-0.100;2023-05-02T07:32:40;101921.60;;;10.12;59.60
61761;BME280;47664;51.660;-0.100;2023-05-02T07:35:08;101923.48;;;10.68;58.72
61761;BME280;47664;51.660;-0.100;2023-05-02T07:37:36;101922.43;;;10.57;59.00
61761;BME280;47664;51.660;-0.100;2023-05-02T07:40:03;101927.74;;;10.59;58.97
61761;BME280;47664;51.660;-0.100;2023-05-02T07:42:31;101932.55;;;10.53;60.73
61761;BME280;47664;51.660;-0.100;2023-05-02T07:44:58;101931.04;;;9.38;61.23
61761;BME280;47664;51.660;-0.100;2023-05-02T07:47:26;101928.65;;;10.55;60.16
61761;BME280;47664;51.660;-0.100;2023-05-02T07:49:54;101931.22;;;10.92;59.24
61761;BME280;47664;51.660;-0.100;2023-05-02T07:52:21;101935.69;;;10.20;60.74
61761;BME280;47664;51.660;-0.100;2023-05-02T07:54:49;101936.88;;;10.69;60.98
61761;BME280;47664;51.660;-0.100;2023-05-02T07:57:17;101940.01;;;9.84;61.15
61761;BME280;47664;51.660;-0.100;2023-05-02T07:59:44;101942.30;;;9.49;61.12
61761;BME280;47664;51.660;-0.100;2023-05-02T08:02:12;101943.58;;;9.91;61.32
61761;BME280;47664;51.660;-0.100;2023-05-02T08:04:39;101942.19;;;9.71;60.98
61761;BME280;47664;51.660;-0.100;2023-05-02T08:07:07;101941.50;;;10.06;61.57
61761;BME280;47664;51.660;-0.100;2023-05-02T08:09:34;101943.40;;;9.85;61.64
61761;BME280;47664;51.660;-0.100;2023-05-02T08:12:01;101941.40;;;9.84;61.63
61761;BME280;47664;51.660;-0.100;2023-05-02T08:14:28;101942.01;;;10.57;60.41
61761;BME280;47664;51.660;-0.100;2023-05-02T08:16:55;101942.62;;;9.82;60.32
61761;BME280;47664;51.660;-0.100;2023-05-02T08:19:23;101938.31;;;10.51;60.43
61761;BME280;47664;51.660;-0.100;2023-05-02T08:21:52;101940.27;;;10.02;59.19
61761;BME280;47664;51.660;-0.100;2023-05-02T08:24:19;101947.00;;;11.07;58.29
61761;BME280;47664;51.660;-0.100;2023-05-02T08:26:46;101948.21;;;10.53;57.59
61761;BME280;47664;51.660;-0.100;2023-05-02T08:29:14;101946.02;;;10.92;58.05
61761;BME280;47664;51.660;-0.100;2023-05-02T08:31:41;101949.77;;;10.44;58.23
61761;BME280;47664;51.660;-0.100;2023-05-02T08:34:08;101954.80;;;11.00;57.50
61761;BME280;47664;51.660;-0.100;2023-05-02T08:36:41;101955.17;;;11.00;57.44
61761;BME280;47664;51.660;-0.100;2023-05-02T08:39:08;101956.84;;;11.10;56.78
61761;BME280;47664;51.660;-0.100;2023-05-02T08:41:35;101949.78;;;10.59;58.23
61761;BME280;47664;51.660;-0.100;2023-05-02T08:44:04;101955.57;;;10.26;58.92
61761;BME280;47664;51.660;-0.100;2023-05-02T08:46:34;101959.46;;;10.50;59.02
61761;BME280;47664;51.660;-0.100;2023-05-02T08:49:03;101964.90;;;10.17;59.43
61761;BME280;47664;51.660;-0.100;2023-05-02T08:51:32;101969.41;;;10.82;58.34
61761;BME280;47664;51.660;-0.100;2023-05-02T08:54:01;101978.25;;;10.72;56.78
61761;BME280;47664;51.660;-0.100;2023-05-02T08:56:29;101980.32;;;11.21;56.50
61761;BME280;47664;51.660;-0.100;2023-05-02T08:58:56;101983.10;;;10.56;57.28
61761;BME280;47664;51.660;-0.100;2023-05-02T09:01:27;101986.93;;;10.74;57.78
61761;BME280;47664;51.660;-0.100;2023-05-02T09:03:56;101989.01;;;10.22;57.94
61761;BME280;47664;51.660;-0.100;2023-05-02T09:06:24;101992.73;;;10.57;58.20
61761;BME280;47664;51.660;-0.100;2023-05-02T09:08:52;101998.00;;;10.51;56.35
61761;BME280;47664;51.660;-0.100;2023-05-02T09:11:20;102000.78;;;11.74;54.75
61761;BME280;47664;51.660;-0.100;2023-05-02T09:13:49;102002.85;;;11.25;53.59
61761;BME280;47664;51.660;-0.100;2023-05-02T09:16:17;102002.75;;;11.80;53.43
61761;BME280;47664;51.660;-0.100;2023-05-02T09:18:47;101999.02;;;11.38;54.14
61761;BME280;47664;51.660;-0.100;2023-05-02T09:21:16;102003.68;;;11.71;53.97
61761;BME280;47664;51.660;-0.100;2023-05-02T09:23:45;102009.23;;;11.54;53.19
61761;BME280;47664;51.660;-0.100;2023-05-02T09:26:14;102010.43;;;12.34;52.63
61761;BME280;47664;51.660;-0.100;2023-05-02T09:28:43;102010.55;;;11.51;51.83
61761;BME280;47664;51.660;-0.100;2023-05-02T09:31:13;102007.73;;;12.26;51.76
61761;BME280;47664;51.660;-0.100;2023-05-02T09:33:41;102010.07;;;11.78;52.72
61761;BME280;47664;51.660;-0.100;2023-05-02T09:36:10;102011.16;;;11.54;53.96
61761;BME280;47664;51.660;-0.100;2023-05-02T09:38:38;102012.65;;;11.07;55.50
61761;BME280;47664;51.660;-0.100;2023-05-02T09:41:06;102015.24;;;10.76;55.36
61761;BME280;47664;51.660;-0.100;2023-05-02T09:43:32;102021.58;;;11.06;54.49
61761;BME280;47664;51.660;-0.100;2023-05-02T09:46:00;102026.89;;;10.70;54.76
61761;BME280;47664;51.660;-0.100;2023-05-02T09:48:29;102029.05;;;11.16;54.66
61761;BME280;47664;51.660;-0.100;2023-05-02T09:50:57;102031.48;;;11.00;53.83
61761;BME280;47664;51.660;-0.100;2023-05-02T09:53:24;102038.01;;;11.68;52.90
61761;BME280;47664;51.660;-0.100;2023-05-02T09:56:01;102034.71;;;10.75;52.92
61761;BME280;47664;51.660;-0.100;2023-05-02T09:58:29;102033.21;;;11.37;53.58
61761;BME280;47664;51.660;-0.100;2023-05-02T10:00:57;102033.91;;;10.93;53.82
61761;BME280;47664;51.660;-0.100;2023-05-02T10:03:26;102030.14;;;11.47;53.85
61761;BME280;47664;51.660;-0.100;2023-05-02T10:05:55;102026.59;;;11.25;53.80
61761;BME280;47664;51.660;-0.100;2023-05-02T10:08:25;102028.44;;;11.98;53.39
61761;BME280;47664;51.660;-0.100;2023-05-02T10:10:54;102022.15;;;10.57;55.27
61761;BME280;47664;51.660;-0.100;2023-05-02T10:13:23;102025.18;;;10.42;56.24
61761;BME280;47664;51.660;-0.100;2023-05-02T10:15:58;102021.92;;;10.33;55.19
61761;BME280;47664;51.660;-0.100;2023-05-02T10:18:28;102025.28;;;10.60;55.80
61761;BME280;47664;51.660;-0.100;2023-05-02T10:21:05;102026.30;;;10.45;55.23
61761;BME280;47664;51.660;-0.100;2023-05-02T10:23:34;102025.89;;;11.20;54.59
61761;BME280;47664;51.660;-0.100;2023-05-02T10:26:03;102034.84;;;11.53;53.46
61761;BME280;47664;51.660;-0.100;2023-05-02T10:28:30;102037.14;;;11.45;53.88
61761;BME280;47664;51.660;-0.100;2023-05-02T10:30:59;102036.75;;;10.77;54.06
61761;BME280;47664;51.660;-0.100;2023-05-02T10:33:27;102044.05;;;11.39;54.33
61761;BME280;47664;51.660;-0.100;2023-05-02T10:35:55;102047.66;;;11.14;52.49
61761;BME280;47664;51.660;-0.100;2023-05-02T10:38:23;102046.65;;;11.79;51.72
61761;BME280;47664;51.660;-0.100;2023-05-02T10:40:54;102044.98;;;10.89;51.79
61761;BME280;47664;51.660;-0.100;2023-05-02T10:43:25;102039.66;;;10.98;54.06
61761;BME280;47664;51.660;-0.100;2023-05-02T10:45:53;102043.56;;;10.84;53.50
61761;BME280;47664;51.660;-0.100;2023-05-02T10:48:22;102040.56;;;11.24;53.39
61761;BME280;47664;51.660;-0.100;2023-05-02T10:50:52;102039.65;;;10.68;53.42
61761;BME280;47664;51.660;-0.100;2023-05-02T10:53:23;102038.95;;;11.02;53.99
61761;BME280;47664;51.660;-0.100;2023-05-02T10:56:23;102043.25;;;10.31;54.15
61761;BME280;47664;51.660;-0.100;2023-05-02T10:58:51;102055.14;;;10.42;54.37
61761;BME280;47664;51.660;-0.100;2023-05-02T11:01:35;102057.63;;;10.81;55.06
61761;BME280;47664;51.660;-0.100;2023-05-02T11:04:04;102057.56;;;10.38;56.41
61761;BME280;47664;51.660;-0.100;2023-05-02T11:06:33;102058.88;;;11.06;54.55
61761;BME280;47664;51.660;-0.100;2023-05-02T11:09:32;102069.61;;;10.87;54.32
61761;BME280;47664;51.660;-0.100;2023-05-02T11:12:02;102076.91;;;11.55;52.21
61761;BME280;47664;51.660;-0.100;2023-05-02T11:14:46;102077.37;;;11.78;51.82
61761;BME280;47664;51.660;-0.100;2023-05-02T11:17:14;102076.69;;;11.83;51.26
61761;BME280;47664;51.660;-0.100;2023-05-02T11:20:18;102079.71;;;11.34;51.49
61761;BME280;47664;51.660;-0.100;2023-05-02T11:22:46;102077.90;;;11.64;50.80
61761;BME280;47664;51.660;-0.100;2023-05-02T11:25:29;102074.70;;;12.16;49.02
61761;BME280;47664;51.660;-0.100;2023-05-02T11:27:57;102070.49;;;12.05;48.53
61761;BME280;47664;51.660;-0.100;2023-05-02T11:30:42;102064.46;;;13.21;47.84
61761;BME280;47664;51.660;-0.100;2023-05-02T11:33:15;102072.13;;;12.94;47.97
61761;BME280;47664;51.660;-0.100;2023-05-02T11:35:45;102064.67;;;12.52;47.38
61761;BME280;47664;51.660;-0.100;2023-05-02T11:38:14;102066.78;;;12.72;48.47
61761;BME280;47664;51.660;-0.100;2023-05-02T11:40:57;102067.79;;;12.32;48.79
61761;BME280;47664;51.660;-0.100;2023-05-02T11:43:26;102065.85;;;12.73;48.10
61761;BME280;47664;51.660;-0.100;2023-05-02T11:45:54;102068.27;;;12.06;48.83
61761;BME280;47664;51.660;-0.100;2023-05-02T11:48:22;102064.33;;;12.38;49.14
61761;BME280;47664;51.660;-0.100;2023-05-02T11:50:53;102067.06;;;11.24;49.98
61761;BME280;47664;51.660;-0.100;2023-05-02T11:53:22;102067.36;;;11.69;50.06
61761;BME280;47664;51.660;-0.100;2023-05-02T11:55:52;102070.71;;;11.13;49.56
61761;BME280;47664;51.660;-0.100;2023-05-02T11:58:21;102070.90;;;12.45;48.22
61761;BME280;47664;51.660;-0.100;2023-05-02T12:00:49;102070.27;;;11.52;48.53
61761;BME280;47664;51.660;-0.100;2023-05-02T12:03:22;102074.26;;;12.46;48.24
61761;BME280;47664;51.660;-0.100;2023-05-02T12:05:50;102077.46;;;12.04;47.48
61761;BME280;47664;51.660;-0.100;2023-05-02T12:08:20;102079.08;;;12.70;46.64
61761;BME280;47664;51.660;-0.100;2023-05-02T12:10:48;102078.27;;;12.21;46.78
61761;BME280;47664;51.660;-0.100;2023-05-02T12:13:16;102080.25;;;13.17;46.99
61761;BME280;47664;51.660;-0.100;2023-05-02T12:15:43;102085.23;;;12.72;46.45
61761;BME280;47664;51.660;-0.100;2023-05-02T12:18:11;102086.60;;;13.44;46.05
61761;BME280;47664;51.660;-0.100;2023-05-02T12:20:40;102096.26;;;12.46;47.47
61761;BME280;47664;51.660;-0.100;2023-05-02T12:23:08;102098.25;;;12.41;47.60
61761;BME280;47664;51.660;-0.100;2023-05-02T12:25:38;102101.48;;;12.83;47.07
61761;BME280;47664;51.660;-0.100;2023-05-02T12:28:06;102094.96;;;12.83;47.26
61761;BME280;47664;51.660;-0.100;2023-05-02T12:30:34;102089.42;;;13.44;45.60
61761;BME280;47664;51.660;-0.100;2023-05-02T12:33:01;102094.03;;;13.16;45.98
61761;BME280;47664;51.660;-0.100;2023-05-02T12:35:30;102091.26;;;13.02;45.95
61761;BME280;47664;51.660;-0.100;2023-05-02T12:38:08;102092.33;;;12.67;45.80
61761;BME280;47664;51.660;-0.100;2023-05-02T12:40:37;102099.23;;;13.29;46.18
61761;BME280;47664;51.660;-0.100;2023-05-02T12:43:05;102105.88;;;12.69;46.14
61761;BME280;47664;51.660;-0.100;2023-05-02T12:45:32;102101.90;;;13.32;45.73
61761;BME280;47664;51.660;-0.100;2023-05-02T12:48:00;102105.12;;;12.60;45.95
61761;BME280;47664;51.660;-0.100;2023-05-02T12:50:36;102109.68;;;13.27;46.21